createdAt,value
2018-01-27T00:00:30.071Z,74.73
2018-01-27T00:01:35.816Z,74.84
2018-01-27T00:02:41.691Z,74.82
2018-01-27T00:03:46.944Z,74.78
2018-01-27T00:04:53.133Z,74.77
2018-01-27T00:05:58.966Z,74.80
2018-01-27T00:07:04.719Z,74.81
2018-01-27T00:08:10.527Z,74.77
2018-01-27T00:09:16.933Z,74.78
2018-01-27T00:10:22.386Z,74.80
2018-01-27T00:11:28.125Z,74.79
2018-01-27T00:12:33.892Z,74.76
2018-01-27T00:13:39.525Z,74.76
2018-01-27T00:14:45.831Z,74.78
2018-01-27T00:15:51.627Z,74.79
2018-01-27T00:16:58.147Z,74.80
2018-01-27T00:18:03.908Z,74.86
2018-01-27T00:19:09.695Z,74.88
2018-01-27T00:20:15.316Z,74.81
2018-01-27T00:21:21.842Z,74.73
2018-01-27T00:22:26.762Z,74.72
2018-01-27T00:23:32.525Z,74.73
2018-01-27T00:24:39.087Z,74.67
2018-01-27T00:25:45.610Z,74.61
2018-01-27T00:26:51.340Z,74.57
2018-01-27T00:27:57.080Z,74.60
2018-01-27T00:29:02.868Z,74.66
2018-01-27T00:30:09.407Z,74.71
2018-01-27T00:31:15.163Z,74.82
2018-01-27T00:32:21.157Z,74.85
2018-01-27T00:33:26.899Z,74.82
2018-01-27T00:34:32.667Z,74.83
2018-01-27T00:35:38.496Z,74.86
2018-01-27T00:36:44.260Z,74.90
2018-01-27T00:37:50.019Z,74.93
2018-01-27T00:38:55.779Z,74.91
2018-01-27T00:40:02.285Z,74.86
2018-01-27T00:41:08.161Z,74.85
2018-01-27T00:42:14.732Z,74.80
2018-01-27T00:43:21.260Z,74.78
2018-01-27T00:44:26.992Z,74.74
2018-01-27T00:45:32.751Z,74.71
2018-01-27T00:46:38.550Z,74.64
2018-01-27T00:47:44.318Z,74.63
2018-01-27T00:48:50.074Z,74.60
2018-01-27T00:49:55.834Z,74.52
2018-01-27T00:51:01.587Z,74.58
2018-01-27T00:52:07.360Z,74.57
2018-01-27T00:53:13.126Z,74.55
2018-01-27T00:54:18.872Z,74.58
2018-01-27T00:55:24.618Z,74.63
2018-01-27T00:56:30.353Z,74.68
2018-01-27T00:57:36.122Z,74.82
2018-01-27T00:58:41.883Z,74.94
2018-01-27T00:59:48.414Z,74.97
2018-01-27T01:00:54.167Z,74.96
2018-01-27T01:01:59.943Z,75.05
2018-01-27T01:03:05.732Z,75.02
2018-01-27T01:04:11.524Z,74.96
2018-01-27T01:05:17.265Z,74.95
2018-01-27T01:06:23.003Z,75.14
2018-01-27T01:07:28.756Z,75.15
2018-01-27T01:08:34.548Z,75.18
2018-01-27T01:09:40.293Z,75.31
2018-01-27T01:10:46.034Z,75.39
2018-01-27T01:11:51.799Z,75.47
2018-01-27T01:12:58.318Z,75.40
2018-01-27T01:14:04.118Z,75.41
2018-01-27T01:15:09.848Z,75.45
2018-01-27T01:16:16.361Z,75.39
2018-01-27T01:17:22.113Z,75.40
2018-01-27T01:18:27.877Z,75.47
2018-01-27T01:19:34.633Z,75.47
2018-01-27T01:20:40.384Z,75.43
2018-01-27T01:21:46.905Z,75.39
2018-01-27T01:22:52.649Z,75.42
2018-01-27T01:23:58.380Z,75.39
2018-01-27T01:25:04.160Z,75.45
2018-01-27T01:26:09.897Z,75.62
2018-01-27T01:27:15.628Z,75.74
2018-01-27T01:28:21.368Z,75.82
2018-01-27T01:29:27.110Z,75.87
2018-01-27T01:30:32.911Z,75.88
2018-01-27T01:31:38.672Z,75.88
2018-01-27T01:32:44.421Z,75.89
2018-01-27T01:33:50.153Z,75.87
2018-01-27T01:34:55.023Z,75.86
2018-01-27T01:36:01.666Z,75.92
2018-01-27T01:37:07.415Z,75.90
2018-01-27T01:38:13.938Z,75.82
2018-01-27T01:39:19.687Z,75.82
2018-01-27T01:40:25.444Z,75.85
2018-01-27T01:41:31.209Z,75.78
2018-01-27T01:42:43.051Z,75.85
2018-01-27T01:43:54.029Z,75.87
2018-01-27T01:44:59.763Z,75.92
2018-01-27T01:46:05.515Z,75.93
2018-01-27T01:47:11.289Z,76.11
2018-01-27T01:48:17.784Z,76.12
2018-01-27T01:49:26.078Z,76.13
2018-01-27T01:50:31.838Z,76.23
2018-01-27T01:51:37.572Z,76.52
2018-01-27T01:52:44.151Z,76.51
2018-01-27T01:53:50.075Z,76.47
2018-01-27T01:54:55.806Z,76.60
2018-01-27T01:56:01.568Z,76.64
2018-01-27T01:57:07.303Z,76.75
2018-01-27T01:58:13.075Z,76.77
2018-01-27T01:59:18.830Z,76.69
2018-01-27T02:00:25.328Z,76.73
2018-01-27T02:01:31.082Z,76.76
2018-01-27T02:02:36.807Z,76.67
2018-01-27T02:03:42.591Z,76.67
2018-01-27T02:04:48.343Z,76.75
2018-01-27T02:05:54.088Z,76.81
2018-01-27T02:06:59.175Z,76.78
2018-01-27T02:08:04.926Z,76.84
2018-01-27T02:09:10.685Z,76.80
2018-01-27T02:10:16.438Z,76.94
2018-01-27T02:11:21.937Z,76.90
2018-01-27T02:12:27.673Z,76.97
2018-01-27T02:13:33.406Z,77.04
2018-01-27T02:14:39.178Z,77.09
2018-01-27T02:15:44.917Z,77.17
2018-01-27T02:16:50.701Z,77.14
2018-01-27T02:17:57.239Z,77.27
2018-01-27T02:19:03.125Z,77.36
2018-01-27T02:20:08.887Z,77.34
2018-01-27T02:21:14.628Z,77.35
2018-01-27T02:22:20.364Z,77.50
2018-01-27T02:23:26.103Z,77.56
2018-01-27T02:24:31.516Z,77.68
2018-01-27T02:25:38.029Z,77.74
2018-01-27T02:26:43.753Z,77.72
2018-01-27T02:27:49.499Z,77.63
2018-01-27T02:28:55.251Z,77.54
2018-01-27T02:30:00.993Z,77.48
2018-01-27T02:31:06.773Z,77.49
2018-01-27T02:32:13.270Z,77.42
2018-01-27T02:33:19.009Z,77.30
2018-01-27T02:34:24.762Z,77.29
2018-01-27T02:35:30.492Z,77.26
2018-01-27T02:36:36.267Z,77.13
2018-01-27T02:37:42.019Z,77.05
2018-01-27T02:38:47.776Z,76.98
2018-01-27T02:39:54.038Z,76.97
2018-01-27T02:40:59.646Z,76.92
2018-01-27T02:42:05.083Z,76.94
2018-01-27T02:43:10.862Z,76.93
2018-01-27T02:44:16.600Z,76.93
2018-01-27T02:45:21.685Z,76.94
2018-01-27T02:46:27.464Z,76.96
2018-01-27T02:47:33.255Z,76.97
2018-01-27T02:48:39.005Z,77.00
2018-01-27T02:49:44.724Z,77.03
2018-01-27T02:50:50.479Z,77.02
2018-01-27T02:51:55.898Z,76.92
2018-01-27T02:53:01.679Z,76.84
2018-01-27T02:54:08.196Z,76.78
2018-01-27T02:55:13.960Z,76.73
2018-01-27T02:56:19.719Z,76.71
2018-01-27T02:57:25.230Z,76.71
2018-01-27T02:58:30.808Z,76.69
2018-01-27T02:59:37.474Z,76.71
2018-01-27T03:00:43.239Z,76.73
2018-01-27T03:01:48.973Z,76.79
2018-01-27T03:02:54.719Z,76.81
2018-01-27T03:04:00.483Z,76.97
2018-01-27T03:05:06.220Z,76.96
2018-01-27T03:06:11.952Z,76.97
2018-01-27T03:07:17.708Z,77.14
2018-01-27T03:08:23.470Z,77.24
2018-01-27T03:09:29.248Z,77.33
2018-01-27T03:10:34.993Z,77.39
2018-01-27T03:11:40.722Z,77.50
2018-01-27T03:12:46.472Z,77.50
2018-01-27T03:13:52.207Z,77.44
2018-01-27T03:14:58.747Z,77.41
2018-01-27T03:16:04.478Z,77.41
2018-01-27T03:17:10.276Z,77.54
2018-01-27T03:18:16.003Z,77.59
2018-01-27T03:19:21.776Z,77.58
2018-01-27T03:20:27.367Z,77.55
2018-01-27T03:21:33.869Z,77.56
2018-01-27T03:22:39.609Z,77.68
2018-01-27T03:23:45.371Z,77.70
2018-01-27T03:24:51.108Z,77.68
2018-01-27T03:25:56.891Z,77.63
2018-01-27T03:27:03.168Z,77.62
2018-01-27T03:28:08.582Z,77.60
2018-01-27T03:29:15.099Z,77.58
2018-01-27T03:30:20.823Z,77.57
2018-01-27T03:31:26.612Z,77.53
2018-01-27T03:32:32.367Z,77.50
2018-01-27T03:33:38.896Z,77.48
2018-01-27T03:34:44.629Z,77.47
2018-01-27T03:35:50.380Z,77.41
2018-01-27T03:36:55.793Z,77.38
2018-01-27T03:38:01.526Z,77.33
2018-01-27T03:39:07.265Z,77.29
2018-01-27T03:40:13.025Z,77.21
2018-01-27T03:41:18.755Z,77.17
2018-01-27T03:42:24.534Z,77.12
2018-01-27T03:43:30.285Z,77.08
2018-01-27T03:44:36.779Z,77.06
2018-01-27T03:45:41.862Z,77.04
2018-01-27T03:46:48.414Z,77.01
2018-01-27T03:47:54.207Z,76.97
2018-01-27T03:48:59.972Z,76.94
2018-01-27T03:50:05.740Z,76.89
2018-01-27T03:51:11.472Z,76.86
2018-01-27T03:52:17.226Z,76.87
2018-01-27T03:53:22.968Z,76.90
2018-01-27T03:54:29.480Z,76.91
2018-01-27T03:55:35.232Z,76.86
2018-01-27T03:56:40.750Z,76.91
2018-01-27T03:57:46.493Z,76.86
2018-01-27T03:58:52.264Z,76.83
2018-01-27T03:59:58.039Z,76.79
2018-01-27T04:01:04.536Z,76.78
2018-01-27T04:02:10.288Z,76.77
2018-01-27T04:03:16.035Z,76.75
2018-01-27T04:04:21.816Z,76.70
2018-01-27T04:05:28.320Z,76.70
2018-01-27T04:06:34.055Z,76.62
2018-01-27T04:07:39.801Z,76.45
2018-01-27T04:08:45.537Z,76.32
2018-01-27T04:09:50.960Z,76.19
2018-01-27T04:10:56.376Z,76.13
2018-01-27T04:12:02.896Z,76.16
2018-01-27T04:13:08.667Z,76.16
2018-01-27T04:14:14.393Z,76.14
2018-01-27T04:15:20.162Z,76.07
2018-01-27T04:16:26.678Z,76.04
2018-01-27T04:17:32.442Z,76.02
2018-01-27T04:18:38.953Z,76.01
2018-01-27T04:19:44.692Z,75.88
2018-01-27T04:20:50.460Z,75.72
2018-01-27T04:21:56.196Z,75.67
2018-01-27T04:23:01.946Z,75.68
2018-01-27T04:24:07.706Z,75.65
2018-01-27T04:25:14.963Z,75.56
2018-01-27T04:26:21.535Z,75.42
2018-01-27T04:27:28.779Z,75.33
2018-01-27T04:28:33.875Z,75.33
2018-01-27T04:29:40.181Z,75.29
2018-01-27T04:30:45.946Z,75.27
2018-01-27T04:31:52.476Z,75.19
2018-01-27T04:32:58.219Z,75.09
2018-01-27T04:34:04.176Z,75.01
2018-01-27T04:35:09.947Z,74.92
2018-01-27T04:36:16.454Z,74.90
2018-01-27T04:37:22.205Z,74.86
2018-01-27T04:38:27.963Z,74.75
2018-01-27T04:39:33.702Z,74.72
2018-01-27T04:40:39.443Z,74.76
2018-01-27T04:41:45.185Z,74.85
2018-01-27T04:42:51.098Z,74.94
2018-01-27T04:43:56.607Z,75.04
2018-01-27T04:45:02.388Z,75.19
2018-01-27T04:46:08.125Z,75.28
2018-01-27T04:47:13.872Z,75.34
2018-01-27T04:48:19.681Z,75.41
2018-01-27T04:49:25.424Z,75.50
2018-01-27T04:50:31.178Z,75.60
2018-01-27T04:51:36.928Z,75.65
2018-01-27T04:52:42.663Z,75.62
2018-01-27T04:53:48.438Z,75.64
2018-01-27T04:54:54.192Z,75.73
2018-01-27T04:55:59.922Z,75.87
2018-01-27T04:57:05.655Z,75.99
2018-01-27T04:58:11.391Z,76.04
2018-01-27T04:59:17.167Z,76.05
2018-01-27T05:00:23.685Z,76.06
2018-01-27T05:01:29.417Z,76.06
2018-01-27T05:02:35.169Z,76.08
2018-01-27T05:03:40.907Z,76.11
2018-01-27T05:04:46.661Z,76.14
2018-01-27T05:05:52.391Z,76.16
2018-01-27T05:06:57.823Z,76.23
2018-01-27T05:08:03.558Z,76.25
2018-01-27T05:09:09.281Z,76.26
2018-01-27T05:10:15.035Z,76.30
2018-01-27T05:11:20.854Z,76.24
2018-01-27T05:12:26.606Z,76.20
2018-01-27T05:13:32.350Z,76.14
2018-01-27T05:14:37.430Z,76.08
2018-01-27T05:15:44.794Z,76.06
2018-01-27T05:16:51.290Z,75.97
2018-01-27T05:17:57.797Z,75.91
2018-01-27T05:19:03.520Z,75.76
2018-01-27T05:20:09.255Z,75.63
2018-01-27T05:21:15.053Z,75.61
2018-01-27T05:22:20.776Z,75.57
2018-01-27T05:23:26.510Z,75.53
2018-01-27T05:24:32.249Z,75.53
2018-01-27T05:25:38.002Z,75.62
2018-01-27T05:26:43.776Z,75.72
2018-01-27T05:27:50.422Z,75.83
2018-01-27T05:28:56.162Z,75.89
2018-01-27T05:30:02.891Z,75.95
2018-01-27T05:31:08.629Z,75.95
2018-01-27T05:32:14.388Z,75.99
2018-01-27T05:33:20.181Z,76.00
2018-01-27T05:34:26.692Z,76.01
2018-01-27T05:35:32.443Z,76.03
2018-01-27T05:36:38.214Z,76.08
2018-01-27T05:37:44.747Z,76.10
2018-01-27T05:38:50.472Z,76.09
2018-01-27T05:39:56.200Z,76.14
2018-01-27T05:41:01.965Z,76.19
2018-01-27T05:42:07.723Z,76.28
2018-01-27T05:43:14.309Z,76.31
2018-01-27T05:44:20.818Z,76.29
2018-01-27T05:45:26.567Z,76.30
2018-01-27T05:46:32.326Z,76.32
2018-01-27T05:47:38.059Z,76.32
2018-01-27T05:48:43.820Z,76.31
2018-01-27T05:49:50.316Z,76.29
2018-01-27T05:50:56.052Z,76.28
2018-01-27T05:52:01.812Z,76.27
2018-01-27T05:53:08.053Z,76.19
2018-01-27T05:54:13.816Z,76.16
2018-01-27T05:55:19.578Z,76.17
2018-01-27T05:56:25.321Z,76.22
2018-01-27T05:57:31.812Z,76.24
2018-01-27T05:58:38.122Z,76.24
2018-01-27T05:59:43.880Z,76.25
2018-01-27T06:00:49.606Z,76.27
2018-01-27T06:01:55.353Z,76.22
2018-01-27T06:03:01.107Z,76.06
2018-01-27T06:04:08.432Z,75.90
2018-01-27T06:05:14.193Z,75.80
2018-01-27T06:06:19.938Z,75.74
2018-01-27T06:07:25.691Z,75.72
2018-01-27T06:08:31.234Z,75.72
2018-01-27T06:09:37.730Z,75.69
2018-01-27T06:10:43.931Z,75.54
2018-01-27T06:11:49.494Z,75.52
2018-01-27T06:12:55.239Z,75.51
2018-01-27T06:14:00.991Z,75.55
2018-01-27T06:15:07.285Z,75.57
2018-01-27T06:16:13.110Z,75.56
2018-01-27T06:17:18.858Z,75.54
2018-01-27T06:18:24.439Z,75.55
2018-01-27T06:19:29.992Z,75.56
2018-01-27T06:20:35.722Z,75.55
2018-01-27T06:21:42.326Z,75.52
2018-01-27T06:22:48.071Z,75.48
2018-01-27T06:23:53.632Z,75.46
2018-01-27T06:24:59.387Z,75.45
2018-01-27T06:26:04.917Z,75.40
2018-01-27T06:27:09.834Z,75.37
2018-01-27T06:28:15.589Z,75.35
2018-01-27T06:29:21.320Z,75.33
2018-01-27T06:30:27.067Z,75.36
2018-01-27T06:31:32.797Z,75.46
2018-01-27T06:32:38.556Z,75.57
2018-01-27T06:33:44.297Z,75.64
2018-01-27T06:34:49.383Z,75.76
2018-01-27T06:35:55.159Z,75.83
2018-01-27T06:37:00.565Z,75.87
2018-01-27T06:38:06.342Z,75.87
2018-01-27T06:39:12.127Z,75.92
2018-01-27T06:40:17.957Z,76.00
2018-01-27T06:41:24.556Z,76.08
2018-01-27T06:42:30.009Z,76.16
2018-01-27T06:43:35.784Z,76.24
2018-01-27T06:44:41.567Z,76.33
2018-01-27T06:45:47.308Z,76.39
2018-01-27T06:46:53.063Z,76.47
2018-01-27T06:47:58.892Z,76.54
2018-01-27T06:49:04.653Z,76.63
2018-01-27T06:50:10.386Z,76.71
2018-01-27T06:51:16.125Z,76.69
2018-01-27T06:52:21.897Z,76.65
2018-01-27T06:53:27.651Z,76.60
2018-01-27T06:54:34.927Z,76.55
2018-01-27T06:55:40.656Z,76.46
2018-01-27T06:56:46.438Z,76.40
2018-01-27T06:57:53.289Z,76.35
2018-01-27T06:58:59.029Z,76.32
2018-01-27T07:00:04.703Z,76.37
2018-01-27T07:01:10.471Z,76.41
2018-01-27T07:02:16.231Z,76.51
2018-01-27T07:03:21.986Z,76.62
2018-01-27T07:04:27.717Z,76.63
2018-01-27T07:05:33.515Z,76.64
2018-01-27T07:06:39.274Z,76.59
2018-01-27T07:07:45.014Z,76.55
2018-01-27T07:08:51.559Z,76.42
2018-01-27T07:09:56.628Z,76.28
2018-01-27T07:11:02.394Z,76.17
2018-01-27T07:12:08.919Z,76.04
2018-01-27T07:13:14.654Z,75.97
2018-01-27T07:14:20.388Z,75.93
2018-01-27T07:15:26.132Z,75.91
2018-01-27T07:16:31.907Z,75.87
2018-01-27T07:17:37.633Z,75.77
2018-01-27T07:18:43.382Z,75.66
2018-01-27T07:19:49.114Z,75.63
2018-01-27T07:20:54.859Z,75.58
2018-01-27T07:22:00.624Z,75.49
2018-01-27T07:23:07.141Z,75.52
2018-01-27T07:24:13.167Z,75.57
2018-01-27T07:25:18.264Z,75.64
2018-01-27T07:26:24.762Z,75.67
2018-01-27T07:27:30.546Z,75.72
2018-01-27T07:28:36.315Z,75.75
2018-01-27T07:29:41.865Z,75.74
2018-01-27T07:30:47.667Z,75.75
2018-01-27T07:31:53.424Z,75.74
2018-01-27T07:32:59.898Z,75.74
2018-01-27T07:34:05.813Z,75.70
2018-01-27T07:35:12.133Z,75.64
2018-01-27T07:36:17.862Z,75.58
2018-01-27T07:37:23.607Z,75.38
2018-01-27T07:38:29.368Z,75.28
2018-01-27T07:39:35.109Z,75.17
2018-01-27T07:40:40.836Z,75.06
2018-01-27T07:41:46.574Z,74.99
2018-01-27T07:42:52.309Z,74.89
2018-01-27T07:43:58.088Z,74.76
2018-01-27T07:45:03.840Z,74.59
2018-01-27T07:46:09.573Z,74.39
2018-01-27T07:47:15.329Z,74.26
2018-01-27T07:48:21.829Z,74.19
2018-01-27T07:49:27.897Z,74.04
2018-01-27T07:50:33.749Z,73.91
2018-01-27T07:51:39.562Z,73.82
2018-01-27T07:52:44.440Z,73.75
2018-01-27T07:53:50.937Z,73.67
2018-01-27T07:54:56.388Z,73.56
2018-01-27T07:56:02.137Z,73.49
2018-01-27T07:57:07.880Z,73.41
2018-01-27T07:58:13.657Z,73.47
2018-01-27T07:59:20.171Z,73.54
2018-01-27T08:00:25.934Z,73.55
2018-01-27T08:01:31.664Z,73.55
2018-01-27T08:02:37.400Z,73.55
2018-01-27T08:03:43.159Z,73.44
2018-01-27T08:04:48.906Z,73.28
2018-01-27T08:05:54.687Z,73.07
2018-01-27T08:07:00.100Z,72.87
2018-01-27T08:08:06.599Z,72.64
2018-01-27T08:09:12.333Z,72.48
2018-01-27T08:10:18.075Z,72.42
2018-01-27T08:11:23.834Z,72.34
2018-01-27T08:12:29.593Z,72.24
2018-01-27T08:13:35.350Z,72.06
2018-01-27T08:14:41.099Z,71.92
2018-01-27T08:15:46.837Z,71.74
2018-01-27T08:16:54.128Z,71.60
2018-01-27T08:18:00.657Z,71.56
2018-01-27T08:19:06.404Z,71.48
2018-01-27T08:20:12.144Z,71.46
2018-01-27T08:21:17.878Z,71.45
2018-01-27T08:22:23.663Z,71.41
2018-01-27T08:23:30.176Z,71.42
2018-01-27T08:24:36.713Z,71.42
2018-01-27T08:25:42.442Z,71.45
2018-01-27T08:26:47.869Z,71.48
2018-01-27T08:27:53.713Z,71.45
2018-01-27T08:28:59.446Z,71.37
2018-01-27T08:30:05.238Z,71.32
2018-01-27T08:31:10.968Z,71.31
2018-01-27T08:32:16.531Z,71.30
2018-01-27T08:33:23.816Z,71.30
2018-01-27T08:34:29.566Z,71.35
2018-01-27T08:35:36.087Z,71.42
2018-01-27T08:36:41.825Z,71.53
2018-01-27T08:37:47.592Z,71.54
2018-01-27T08:38:54.170Z,71.67
2018-01-27T08:39:59.901Z,71.85
2018-01-27T08:41:06.430Z,71.92
2018-01-27T08:42:12.168Z,71.98
2018-01-27T08:43:17.911Z,72.06
2018-01-27T08:44:23.722Z,72.05
2018-01-27T08:45:30.471Z,72.02
2018-01-27T08:46:36.990Z,72.09
2018-01-27T08:47:42.750Z,72.09
2018-01-27T08:48:49.272Z,72.07
2018-01-27T08:49:55.034Z,72.08
2018-01-27T08:51:00.776Z,71.98
2018-01-27T08:52:06.542Z,71.85
2018-01-27T08:53:13.064Z,71.75
2018-01-27T08:54:18.838Z,71.70
2018-01-27T08:55:26.106Z,71.61
2018-01-27T08:56:31.859Z,71.49
2018-01-27T08:57:38.385Z,71.29
2018-01-27T08:58:44.163Z,71.07
2018-01-27T08:59:50.673Z,70.98
2018-01-27T09:00:56.554Z,70.94
2018-01-27T09:02:02.297Z,70.88
2018-01-27T09:03:08.089Z,70.79
2018-01-27T09:04:14.628Z,70.65
2018-01-27T09:05:20.389Z,70.58
2018-01-27T09:06:26.196Z,70.50
2018-01-27T09:07:31.971Z,70.34
2018-01-27T09:08:37.727Z,70.21
2018-01-27T09:09:43.488Z,70.06
2018-01-27T09:10:50.238Z,69.96
2018-01-27T09:11:56.009Z,69.82
2018-01-27T09:13:02.533Z,69.64
2018-01-27T09:14:08.267Z,69.47
2018-01-27T09:15:14.069Z,69.37
2018-01-27T09:16:19.835Z,69.29
2018-01-27T09:17:25.618Z,69.23
2018-01-27T09:18:31.044Z,69.15
2018-01-27T09:19:36.811Z,69.14
2018-01-27T09:20:43.329Z,69.10
2018-01-27T09:21:49.061Z,69.07
2018-01-27T09:22:54.875Z,68.74
2018-01-27T09:24:00.860Z,68.28
2018-01-27T09:25:06.290Z,67.94
2018-01-27T09:26:12.039Z,67.82
2018-01-27T09:27:17.811Z,67.76
2018-01-27T09:28:24.353Z,67.57
2018-01-27T09:29:30.512Z,67.52
2018-01-27T09:30:37.043Z,67.47
2018-01-27T09:31:43.339Z,67.50
2018-01-27T09:32:50.074Z,67.53
2018-01-27T09:33:56.625Z,67.63
2018-01-27T09:35:03.343Z,67.70
2018-01-27T09:36:08.858Z,67.73
2018-01-27T09:37:15.381Z,67.80
2018-01-27T09:38:22.160Z,67.82
2018-01-27T09:39:29.592Z,67.92
2018-01-27T09:40:36.981Z,67.93
2018-01-27T09:41:42.909Z,67.91
2018-01-27T09:42:48.664Z,68.04
2018-01-27T09:43:54.431Z,68.10
2018-01-27T09:44:59.922Z,68.13
2018-01-27T09:46:06.596Z,68.04
2018-01-27T09:47:12.350Z,67.87
2018-01-27T09:48:18.215Z,67.78
2018-01-27T09:49:24.010Z,67.71
2018-01-27T09:50:30.549Z,67.56
2018-01-27T09:51:36.311Z,67.43
2018-01-27T09:52:41.958Z,66.41
2018-01-27T09:53:47.853Z,66.33
2018-01-27T09:54:53.599Z,66.28
2018-01-27T09:55:59.379Z,66.16
2018-01-27T09:57:05.911Z,65.95
2018-01-27T09:58:12.513Z,65.64
2018-01-27T09:59:18.282Z,65.46
2018-01-27T10:00:23.794Z,65.44
2018-01-27T10:01:29.677Z,65.40
2018-01-27T10:02:35.548Z,65.23
2018-01-27T10:03:41.296Z,65.06
2018-01-27T10:04:48.135Z,64.84
2018-01-27T10:05:53.887Z,64.80
2018-01-27T10:07:01.177Z,64.82
2018-01-27T10:08:06.929Z,64.94
2018-01-27T10:09:14.392Z,64.81
2018-01-27T10:10:21.093Z,64.53
2018-01-27T10:11:26.852Z,64.18
2018-01-27T10:12:32.619Z,64.01
2018-01-27T10:13:38.349Z,63.85
2018-01-27T10:14:44.121Z,63.69
2018-01-27T10:15:52.552Z,63.66
2018-01-27T10:16:59.071Z,63.66
2018-01-27T10:18:04.855Z,63.65
2018-01-27T10:19:11.390Z,63.67
2018-01-27T10:20:17.157Z,63.72
2018-01-27T10:21:22.653Z,63.77
2018-01-27T10:22:28.408Z,63.39
2018-01-27T10:23:34.189Z,63.35
2018-01-27T10:24:39.971Z,63.24
2018-01-27T10:25:45.972Z,63.25
2018-01-27T10:26:52.512Z,63.21
2018-01-27T10:27:59.069Z,63.25
2018-01-27T10:29:05.748Z,63.58
2018-01-27T10:30:11.112Z,63.97
2018-01-27T10:31:16.864Z,64.19
2018-01-27T10:32:22.645Z,64.30
2018-01-27T10:33:28.519Z,64.49
2018-01-27T10:34:35.157Z,64.41
2018-01-27T10:35:41.001Z,64.41
2018-01-27T10:36:47.787Z,64.49
2018-01-27T10:37:54.322Z,64.40
2018-01-27T10:39:00.887Z,64.31
2018-01-27T10:40:08.115Z,64.14
2018-01-27T10:41:14.728Z,63.96
2018-01-27T10:42:21.076Z,63.57
2018-01-27T10:43:26.889Z,63.35
2018-01-27T10:44:33.713Z,63.36
2018-01-27T10:45:39.739Z,63.21
2018-01-27T10:46:46.248Z,63.09
2018-01-27T10:47:52.040Z,62.81
2018-01-27T10:48:57.710Z,62.29
2018-01-27T10:50:03.564Z,61.68
2018-01-27T10:51:09.388Z,61.10
2018-01-27T10:52:15.010Z,60.63
2018-01-27T10:53:21.553Z,60.28
2018-01-27T10:54:29.680Z,60.12
2018-01-27T10:55:36.507Z,60.12
2018-01-27T10:56:43.804Z,59.96
2018-01-27T10:57:51.651Z,59.75
2018-01-27T10:58:58.485Z,59.27
2018-01-27T11:00:05.371Z,59.26
2018-01-27T11:01:11.503Z,59.29
2018-01-27T11:02:19.430Z,59.07
2018-01-27T11:03:25.276Z,59.07
2018-01-27T11:04:31.695Z,59.10
2018-01-27T11:05:37.156Z,58.80
2018-01-27T11:06:43.941Z,58.60
2018-01-27T11:07:52.281Z,58.50
2018-01-27T11:08:58.070Z,58.76
2018-01-27T11:10:05.818Z,59.12
2018-01-27T11:11:13.139Z,59.30
2018-01-27T11:12:20.671Z,59.39
2018-01-27T11:13:27.635Z,59.71
2018-01-27T11:14:34.938Z,59.94
2018-01-27T11:15:40.766Z,60.27
2018-01-27T11:16:48.117Z,60.50
2018-01-27T11:17:53.880Z,60.54
2018-01-27T11:19:02.457Z,60.54
2018-01-27T11:20:08.219Z,60.68
2018-01-27T11:21:14.809Z,60.99
2018-01-27T11:22:20.319Z,61.22
2018-01-27T11:23:26.189Z,61.34
2018-01-27T11:24:32.026Z,61.39
2018-01-27T11:25:38.553Z,61.26
2018-01-27T11:26:44.329Z,61.20
2018-01-27T11:27:51.972Z,61.16
2018-01-27T11:28:57.756Z,61.12
2018-01-27T11:30:07.033Z,61.02
2018-01-27T11:31:13.614Z,60.94
2018-01-27T11:32:20.310Z,61.05
2018-01-27T11:33:26.286Z,60.88
2018-01-27T11:34:32.263Z,60.81
2018-01-27T11:35:38.154Z,60.96
2018-01-27T11:36:45.129Z,61.34
2018-01-27T11:37:50.884Z,61.51
2018-01-27T11:38:56.660Z,61.53
2018-01-27T11:40:03.299Z,61.94
2018-01-27T11:41:10.145Z,62.33
2018-01-27T11:42:16.007Z,62.75
2018-01-27T11:43:22.749Z,63.24
2018-01-27T11:44:28.786Z,63.62
2018-01-27T11:45:34.636Z,64.09
2018-01-27T11:46:40.482Z,64.45
2018-01-27T11:47:48.213Z,64.95
2018-01-27T11:48:54.039Z,65.27
2018-01-27T11:49:59.845Z,65.84
2018-01-27T11:51:05.779Z,66.20
2018-01-27T11:52:11.738Z,66.67
2018-01-27T11:53:17.686Z,66.90
2018-01-27T11:54:23.477Z,66.87
2018-01-27T11:55:29.542Z,66.92
2018-01-27T11:56:35.981Z,67.07
2018-01-27T11:57:42.126Z,67.11
2018-01-27T11:58:49.022Z,67.23
2018-01-27T11:59:54.795Z,67.23
2018-01-27T12:01:00.637Z,67.22
2018-01-27T12:02:06.790Z,67.57
2018-01-27T12:03:13.553Z,67.72
2018-01-27T12:04:19.708Z,67.81
2018-01-27T12:05:27.989Z,67.77
2018-01-27T12:06:34.147Z,67.84
2018-01-27T12:07:40.207Z,67.92
2018-01-27T12:08:45.689Z,67.98
2018-01-27T12:09:51.688Z,68.02
2018-01-27T12:10:58.197Z,67.84
2018-01-27T12:12:05.104Z,67.68
2018-01-27T12:13:11.188Z,67.74
2018-01-27T12:14:17.292Z,67.78
2018-01-27T12:15:24.385Z,67.76
2018-01-27T12:16:30.537Z,67.74
2018-01-27T12:17:36.390Z,67.83
2018-01-27T12:18:42.629Z,67.97
2018-01-27T12:19:48.891Z,67.61
2018-01-27T12:20:55.056Z,67.30
2018-01-27T12:22:01.193Z,67.23
2018-01-27T12:23:07.338Z,67.13
2018-01-27T12:24:13.496Z,67.22
2018-01-27T12:25:21.584Z,67.33
2018-01-27T12:26:27.748Z,67.17
2018-01-27T12:27:33.940Z,67.07
2018-01-27T12:28:40.101Z,67.15
2018-01-27T12:29:47.650Z,66.91
2018-01-27T12:30:54.801Z,66.79
2018-01-27T12:32:01.652Z,66.86
2018-01-27T12:33:07.242Z,66.79
2018-01-27T12:34:14.274Z,66.55
2018-01-27T12:35:20.421Z,66.31
2018-01-27T12:36:27.299Z,66.04
2018-01-27T12:37:34.274Z,65.68
2018-01-27T12:38:40.214Z,65.40
2018-01-27T12:39:46.306Z,65.36
2018-01-27T12:40:53.022Z,65.20
2018-01-27T12:41:59.068Z,64.98
2018-01-27T12:43:05.122Z,64.76
2018-01-27T12:44:11.064Z,64.65
2018-01-27T12:45:17.230Z,64.44
2018-01-27T12:46:22.817Z,64.27
2018-01-27T12:47:29.635Z,63.98
2018-01-27T12:48:37.229Z,64.01
2018-01-27T12:49:43.254Z,64.00
2018-01-27T12:50:48.993Z,64.25
2018-01-27T12:51:54.836Z,64.31
2018-01-27T12:53:00.664Z,64.38
2018-01-27T12:54:07.249Z,64.45
2018-01-27T12:55:13.225Z,64.51
2018-01-27T12:56:20.159Z,64.54
2018-01-27T12:57:26.238Z,64.47
2018-01-27T12:58:32.137Z,64.48
2018-01-27T12:59:38.103Z,64.34
2018-01-27T13:00:44.171Z,64.13
2018-01-27T13:01:50.291Z,63.19
2018-01-27T13:02:57.490Z,62.88
2018-01-27T13:04:04.278Z,62.73
2018-01-27T13:05:10.394Z,62.65
2018-01-27T13:06:16.585Z,62.63
2018-01-27T13:07:23.420Z,62.71
2018-01-27T13:08:29.553Z,62.70
2018-01-27T13:09:35.624Z,62.66
2018-01-27T13:10:41.809Z,62.56
2018-01-27T13:11:48.594Z,62.51
2018-01-27T13:12:54.665Z,62.48
2018-01-27T13:14:01.432Z,62.24
2018-01-27T13:15:08.097Z,62.27
2018-01-27T13:16:14.394Z,62.49
2018-01-27T13:17:21.417Z,62.68
2018-01-27T13:18:27.576Z,62.68
2018-01-27T13:19:33.606Z,62.58
2018-01-27T13:20:39.671Z,62.63
2018-01-27T13:21:46.207Z,62.67
2018-01-27T13:22:52.390Z,62.60
2018-01-27T13:23:58.552Z,62.46
2018-01-27T13:25:04.232Z,62.36
2018-01-27T13:26:10.384Z,62.29
2018-01-27T13:27:16.822Z,62.44
2018-01-27T13:28:23.105Z,62.41
2018-01-27T13:29:29.384Z,62.08
2018-01-27T13:30:35.496Z,62.04
2018-01-27T13:31:42.333Z,62.00
2018-01-27T13:32:48.979Z,62.00
2018-01-27T13:33:55.186Z,62.13
2018-01-27T13:35:02.932Z,62.40
2018-01-27T13:36:09.026Z,62.51
2018-01-27T13:37:15.204Z,62.73
2018-01-27T13:38:21.343Z,62.82
2018-01-27T13:39:27.331Z,63.11
2018-01-27T13:40:34.261Z,63.40
2018-01-27T13:41:40.344Z,63.43
2018-01-27T13:42:46.425Z,63.37
2018-01-27T13:43:53.235Z,63.16
2018-01-27T13:44:59.441Z,63.32
2018-01-27T13:46:06.410Z,63.23
2018-01-27T13:47:12.531Z,62.97
2018-01-27T13:48:18.508Z,62.77
2018-01-27T13:49:24.509Z,62.70
2018-01-27T13:50:31.101Z,62.55
2018-01-27T13:51:37.125Z,62.37
2018-01-27T13:52:43.197Z,61.79
2018-01-27T13:53:49.745Z,61.32
2018-01-27T13:54:55.965Z,60.96
2018-01-27T13:56:02.238Z,60.79
2018-01-27T13:57:08.185Z,60.78
2018-01-27T13:58:15.150Z,60.44
2018-01-27T13:59:21.268Z,60.25
2018-01-27T14:00:28.228Z,60.24
2018-01-27T14:01:34.610Z,60.46
2018-01-27T14:02:40.765Z,60.81
2018-01-27T14:03:46.932Z,61.01
2018-01-27T14:04:52.902Z,61.04
2018-01-27T14:05:58.913Z,61.09
2018-01-27T14:07:05.144Z,61.08
2018-01-27T14:08:11.144Z,61.24
2018-01-27T14:09:17.258Z,61.41
2018-01-27T14:10:23.414Z,61.63